Azalea, Oregon
Current Conditions -  °F | °C
As of 3:53 PM on Saturday 22 Nov 2014 (Local Time) from KSXT Reporting Station
Overcast Overcast  
Wind Chill: 31°   Ceiling: 2700
Heat Index: 38°   Visibility: 10mi
Dew Point: 37°   Wind: 9mph
Humidity: 97%   Direction: 310°NW
Pressure: 30.12"   Gusts: NA
Location:  42.8°N, 123.26°W
Report Text: KSXT 222353Z AUTO 31008KT 270V350 10SM FEW004 BKN027 OVC037 03/03 A3012 RMK AO2 SLP205 60004 T00330028 10050 20022 51024 $
Loading
Personal Weather Stations






























Interactive Weather Map New forecast layout! Learn more

10-Day Weather Forecast

Advertisements
Track Severe Weather on mobile